AirNav   Air Wisconsin Up To $57,000 Bonus
 
 1106 users online  

3CA9 Clark Ranch Airport
Soledad, California, USA

GOING TO SOLEDAD?


FAA INFORMATION EFFECTIVE 01 DECEMBER 2022

Location

FAA Identifier: 3CA9
Lat/Long: 36-21-47.8740N 121-18-36.7430W
36-21.797900N 121-18.612383W
36.3632983,-121.3102064
(estimated)
Elevation: 276 ft. / 84 m (estimated)
Variation: 15E (1985)
From city: 4 miles S of SOLEDAD, CA
Time zone: UTC -8 (UTC -7 during Daylight Saving Time)
Zip code: 93960

Airport Operations

Airport use: Private use. Permission required prior to landing
Activation date: 12/1977
Control tower: no
ARTCC: OAKLAND CENTER
FSS: OAKLAND FLIGHT SERVICE STATION
Attendance: UNATNDD
Wind indicator: no
Segmented circle: no

Airport Communications

WX AWOS-AV at 09CA (13 nm SE): 120.800 (831-386-7456)

Nearby radio navigation aids

VOR radial/distance  VOR name  Freq  Var
BSRr040/19.4BIG SUR VORTAC114.0016E
SNSr125/22.9SALINAS VORTAC117.3017E
PXNr214/33.2PANOCHE VORTAC112.6016E

 
NDB name  Hdg/Dist  Freq  Var  ID
HUNTER LIGGETT331/24.820915EHGT .... --. -

Airport Services

Runway Information

Runway 13/31

Dimensions: 2400 x 60 ft. / 732 x 18 m
Surface: asphalt
Runway edge markings: RWY 13-31 MKD WITH LETTER R, BUT IS SVCBL IN AN EMERG.
RUNWAY 13  RUNWAY 31
Traffic pattern: leftleft

Airport Ownership and Management from official FAA records

Ownership: Privately-owned
Owner: ESTATE OF A. H. CLARK
PO BOX 126
SOLEDAD, CA 93960
Manager: MARTEN A. CLARK
PO BOX 155
SOLEDAD, CA 93960
Phone 831-678-2920
831-624-4668 831-915-9779 CELL

Additional Remarks

FOR CD CTC NORCAL APCH AT 916-361-3748.

Instrument Procedures

There are no published instrument procedures at 3CA9.

Some nearby airports with instrument procedures:

KHGT - Tusi Army Heliport (Hunter Liggett) (22 nm S)
KSNS - Salinas Municipal Airport (23 nm NW)
KOAR - Marina Municipal Airport (29 nm NW)
KMRY - Monterey Regional Airport (29 nm NW)
KCVH - Hollister Municipal Airport (32 nm N)
 
Loc | Ops | Rwys | IFR | FBO | Links
Com | Nav | Svcs | Stats | Notes
Area around 3CA9 (Clark Ranch Airport)
 
Road maps at: MapQuest Bing Google
 
Aerial photo
No photo
 
Sectional chart

 
Airport distance calculator
Flying to Clark Ranch Airport? Find the distance to fly.

From to 3CA9

Sunrise and sunset
Times for 06-Dec-2022
 Local
(UTC-8)
 Zulu
(UTC)
Morning civil twilight06:3514:35
Sunrise07:0415:04
Sunset16:4900:49
Evening civil twilight17:1701:17

Current date and time
Zulu (UTC)  07-Dec-2022 02:58:00
Local (UTC-8)  06-Dec-2022 18:58:00
 
METAR
KSNS 
23nm NW 
070253Z 17003KT 10SM FEW043 OVC060 11/07 A3007 RMK AO2 RAE19 SLP193 P0000 60000 T01060072 51013
KOAR 
29nm NW 
134.025 831-384-2967
070235Z AUTO 00000KT 10SM CLR 08/06 A3007 RMK AO2 PWINO
KMRY 
29nm NW 
070254Z 13004KT 10SM CLR 08/06 A3008 RMK AO2 SLP198 T00780061 51011
KCVH 
32nm N 
070255Z AUTO 00000KT 10SM FEW055 FEW065 09/07 A3009 RMK A01
KWVI 
41nm NW 
070253Z AUTO 34003KT 10SM CLR 07/06 A3008 RMK AO2 SLP187 T00670061 53012
TAF
KSNS 
23nm NW 
061759Z 0618/0718 13008KT P6SM VCSH BKN050 TEMPO 0618/0621 -SHRA BKN030 FM062100 VRB03KT P6SM VCSH SCT050 FM062300 29007KT P6SM FEW050 SCT070 FM070200 VRB04KT P6SM FEW040 FM070900 12007KT P6SM FEW030
NOTAMs
Click for the latest NOTAMs
NOTAMs are issued by the DoD/FAA and will open in a separate window not controlled by AirNav.

 

 
 

Would you like to see your business listed on this page?

 If your business provides an interesting product or service to pilots, flight crews, aircraft, or users of the Clark Ranch Airport, you should consider listing it here.  To start the listing process, click on the button below
 
Add a business
 

Other Pages about Clark Ranch Airport

Update a link
 
Copyright © AirNav, LLC. All rights reserved. Privacy Policy  Contact